Weather at Northeast Florida Regional Airport

Public forecast

Using degrees Fahrenheit for public forecast. Weather courtesy of forecast.io.

Current aviation weather report (METAR) for Northeast Florida Regional Airport

2024/06/16 18:56 (retrieved 24 minutes ago)

KSGJ 161856Z 09011KT 10SM FEW023 31/24 A3008 RMK AO2 SLP183 T03110244

Aviation forecast (TAF) for Northeast Florida Regional Airport

2024/06/16 18:30 (retrieved 50 minutes ago)

TAF KSGJ 161728Z 1618/1718 09012G18KT P6SM SCT025 FM170500 09009G15KT P6SM VCSH SCT025 SCT250 FM171300 09014G22KT P6SM VCSH SCT030 BKN040 BKN070